Teterboro Airport
KTEB : now visible

Airfield :











YOU CAN JOIN US ON...

 
LOGIN :

Register | Disclaimer

   EN    FR    IT 

 









Legend :    VFR   Marginal VFR   IFR   Intensive IFR   Very Intensive IFR
Visi :
Ceiling :
>= 8 km
>= 3000ft
5 to 8 km
1000 to 3000 ft
1500m to 5 km
500 to 1000 ft
800 to 1500m
200 to 500 ft
< 800m
< 200 ft
Symbols :   Thunderstorms  Fog  Heavy snow  Heavy precipitations  Wind > 20 kt






- Airport Elevation : 9 ft


KTEB - Teterboro

CURRENT METAR :
  • 071104Z 00000KT 6SM -RA BR FEW050 BKN070 OVC110 20/18 A3013 RMK AO2 P0002 T02000183

EXPIRED METARs :
  • 071051Z 02004KT 2SM RA BR SCT050 OVC080 20/18 A3012 RMK AO2 SLP201 P0009 T02000183
  • 070951Z 36003KT 7SM -RA BKN085 OVC110 20/18 A3011 RMK AO2 SLP195 P0004 T02000183
  • 070851Z 31004KT 10SM -RA BKN080 OVC095 22/18 A3010 RMK AO2 RAB46 SLP191 P0000 60000 T02170178 53004

TAF KTEB
Valid from the 07 at 09:00 until the 08 at 12:00 UTC


070834Z 0709/0812 VRB05KT P6SM SCT060 BKN120
TEMPO 0709/0712 5SM -SHRA BKN045
FM071200 07006KT 5SM -SHRA BKN035 OVC060
FM071500 08008KT 5SM -SHRA BKN020 OVC050
FM071900 08008KT P6SM VCSH BKN020 BKN040
FM080200 VRB04KT P6SM VCSH BKN015 OVC035
KZNY FIR / North America



MET'MAP, your aeronautical weather chart ! - Copyright ORBIFLY December 2007 - Disclaimer

ORBIFLY MET'MAP TEAM :

Programming & Development : Alexandra Zaïnal
Concept & original design : Baudouin d'Aumeries
Assistance for programming : Marc-Olivier Méhu
Technical & hardware support : Manuel Goepfert

Contact : metmap@orbifly.com




SOURCES & CREDITS :

   NOAA       Earth
Advisory